TimeCST,TemperatureF,Dew PointF,Humidity,Sea Level PressureIn,VisibilityMPH,Wind Direction,Wind SpeedMPH,Gust SpeedMPH,PrecipitationIn,Events,Conditions,WindDirDegrees,DateUTC
12:15 AM,34.5,32.4,92,30.41,10.0,Calm,Calm,-,N/A,,Clear,0,2012-11-18 06:15:00
12:35 AM,32.9,31.8,96,30.41,10.0,Calm,Calm,-,N/A,,Clear,0,2012-11-18 06:35:00
12:55 AM,34.0,32.7,95,30.40,10.0,Calm,Calm,-,N/A,,Clear,0,2012-11-18 06:55:00
1:15 AM,33.4,32.2,95,30.40,10.0,Calm,Calm,-,N/A,,Clear,0,2012-11-18 07:15:00
1:35 AM,33.4,32.0,94,30.40,10.0,Calm,Calm,-,N/A,,Clear,0,2012-11-18 07:35:00
1:55 AM,32.4,31.8,98,30.40,7.0,Calm,Calm,-,N/A,,Clear,0,2012-11-18 07:55:00
2:15 AM,32.2,31.6,98,30.40,7.0,NW,3.5,-,N/A,,Clear,310,2012-11-18 08:15:00
2:35 AM,33.1,32.0,96,30.40,7.0,Calm,Calm,-,N/A,,Clear,0,2012-11-18 08:35:00
2:55 AM,32.5,31.8,97,30.40,7.0,Calm,Calm,-,N/A,,Clear,0,2012-11-18 08:55:00
3:15 AM,32.4,31.8,98,30.40,7.0,Calm,Calm,-,N/A,,Clear,0,2012-11-18 09:15:00
3:35 AM,32.4,32.0,99,30.39,7.0,Calm,Calm,-,N/A,,Clear,0,2012-11-18 09:35:00
3:55 AM,32.5,32.0,98,30.39,7.0,Calm,Calm,-,N/A,,Clear,0,2012-11-18 09:55:00
4:15 AM,32.5,32.0,98,30.40,7.0,Calm,Calm,-,N/A,,Clear,0,2012-11-18 10:15:00
4:35 AM,32.0,31.6,99,30.40,7.0,Calm,Calm,-,N/A,,Clear,0,2012-11-18 10:35:00
4:55 AM,31.1,30.4,97,30.41,7.0,Calm,Calm,-,N/A,,Clear,0,2012-11-18 10:55:00
5:15 AM,31.8,31.1,97,30.41,7.0,Calm,Calm,-,N/A,,Clear,0,2012-11-18 11:15:00
5:35 AM,32.0,31.6,99,30.41,5.0,Calm,Calm,-,N/A,,Clear,0,2012-11-18 11:35:00
5:55 AM,31.6,31.1,98,30.41,5.0,Calm,Calm,-,N/A,,Clear,0,2012-11-18 11:55:00
6:15 AM,31.1,30.7,99,30.41,5.0,Calm,Calm,-,N/A,,Clear,0,2012-11-18 12:15:00
6:35 AM,31.1,30.7,99,30.41,7.0,Calm,Calm,-,N/A,,Clear,0,2012-11-18 12:35:00
6:55 AM,31.5,30.7,97,30.41,5.0,Calm,Calm,-,N/A,,Clear,0,2012-11-18 12:55:00
7:15 AM,32.0,31.5,98,30.42,5.0,Calm,Calm,-,N/A,,Clear,0,2012-11-18 13:15:00
7:35 AM,33.3,32.7,98,30.42,4.0,Calm,Calm,-,N/A,,Clear,0,2012-11-18 13:35:00
7:55 AM,34.9,34.0,97,30.43,5.0,Calm,Calm,-,N/A,,Clear,0,2012-11-18 13:55:00
8:15 AM,37.8,36.0,93,30.43,5.0,Calm,Calm,-,N/A,,Clear,0,2012-11-18 14:15:00
8:35 AM,41.5,37.9,87,30.43,7.0,Calm,Calm,-,N/A,,Clear,0,2012-11-18 14:35:00
8:55 AM,43.7,38.5,82,30.43,10.0,Calm,Calm,-,N/A,,Clear,0,2012-11-18 14:55:00
9:15 AM,46.4,38.8,75,30.43,10.0,Calm,Calm,-,N/A,,Clear,0,2012-11-18 15:15:00
9:35 AM,48.7,39.0,69,30.42,10.0,SE,3.5,-,N/A,,Clear,140,2012-11-18 15:35:00
9:55 AM,50.7,38.5,63,30.42,10.0,SE,5.8,-,N/A,,Clear,140,2012-11-18 15:55:00
10:15 AM,52.0,39.2,62,30.42,10.0,SSE,3.5,-,N/A,,Clear,160,2012-11-18 16:15:00
10:35 AM,53.8,39.7,59,30.42,10.0,South,3.5,-,N/A,,Clear,180,2012-11-18 16:35:00
10:55 AM,55.2,38.8,54,30.41,10.0,SSE,3.5,-,N/A,,Clear,160,2012-11-18 16:55:00
11:15 AM,56.3,39.2,53,30.40,10.0,SSE,3.5,-,N/A,,Clear,160,2012-11-18 17:15:00
11:35 AM,57.6,40.6,53,30.39,10.0,SE,3.5,-,N/A,,Clear,140,2012-11-18 17:35:00
11:55 AM,58.8,40.1,50,30.38,10.0,Calm,Calm,-,N/A,,Clear,0,2012-11-18 17:55:00
12:15 PM,60.3,39.6,46,30.38,10.0,SE,3.5,-,N/A,,Clear,130,2012-11-18 18:15:00
12:35 PM,60.4,38.1,44,30.37,10.0,SE,3.5,-,N/A,,Clear,130,2012-11-18 18:35:00
12:55 PM,60.6,37.9,43,30.36,10.0,ESE,3.5,-,N/A,,Clear,110,2012-11-18 18:55:00
1:15 PM,60.8,37.9,43,30.35,10.0,Calm,Calm,-,N/A,,Clear,0,2012-11-18 19:15:00
1:35 PM,61.3,37.4,41,30.35,10.0,Calm,Calm,-,N/A,,Clear,0,2012-11-18 19:35:00
1:55 PM,62.1,37.2,40,30.35,10.0,ESE,3.5,-,N/A,,Clear,120,2012-11-18 19:55:00
2:15 PM,62.1,35.4,37,30.35,10.0,Calm,Calm,-,N/A,,Clear,0,2012-11-18 20:15:00
2:35 PM,62.6,37.8,40,30.34,10.0,South,4.6,-,N/A,,Clear,180,2012-11-18 20:35:00
2:55 PM,61.7,36.7,39,30.34,7.0,SSE,3.5,-,N/A,,Clear,160,2012-11-18 20:55:00
3:15 PM,61.7,37.2,40,30.34,10.0,South,3.5,-,N/A,,Clear,170,2012-11-18 21:15:00
3:35 PM,61.2,37.9,42,30.34,10.0,Calm,Calm,-,N/A,,Clear,0,2012-11-18 21:35:00
3:55 PM,60.4,36.9,42,30.34,10.0,Calm,Calm,-,N/A,,Clear,0,2012-11-18 21:55:00
4:15 PM,59.9,36.5,42,30.34,10.0,Calm,Calm,-,N/A,,Clear,0,2012-11-18 22:15:00
4:35 PM,58.1,38.7,48,30.34,10.0,Calm,Calm,-,N/A,,Clear,0,2012-11-18 22:35:00
4:55 PM,53.1,42.4,67,30.34,10.0,Calm,Calm,-,N/A,,Clear,0,2012-11-18 22:55:00
5:15 PM,51.6,41.9,69,30.35,10.0,Calm,Calm,-,N/A,,Clear,0,2012-11-18 23:15:00
5:35 PM,49.3,41.0,73,30.35,10.0,Calm,Calm,-,N/A,,Clear,0,2012-11-18 23:35:00
5:55 PM,46.4,40.6,80,30.34,10.0,East,3.5,-,N/A,,Clear,90,2012-11-18 23:55:00
6:15 PM,47.3,39.9,76,30.34,10.0,East,5.8,-,N/A,,Clear,90,2012-11-19 00:15:00
6:35 PM,42.8,37.4,81,30.34,7.0,Calm,Calm,-,N/A,,Clear,0,2012-11-19 00:35:00
6:55 PM,44.6,37.6,76,30.35,10.0,Calm,Calm,-,N/A,,Clear,0,2012-11-19 00:55:00
7:15 PM,42.8,37.4,81,30.35,10.0,Calm,Calm,-,N/A,,Clear,0,2012-11-19 01:15:00
7:35 PM,42.4,37.0,81,30.35,10.0,Calm,Calm,-,N/A,,Clear,0,2012-11-19 01:35:00
7:55 PM,41.9,36.5,81,30.35,10.0,Calm,Calm,-,N/A,,Clear,0,2012-11-19 01:55:00
8:15 PM,41.5,36.7,83,30.36,10.0,Calm,Calm,-,N/A,,Clear,0,2012-11-19 02:15:00
8:35 PM,41.4,37.6,86,30.35,10.0,Calm,Calm,-,N/A,,Clear,0,2012-11-19 02:35:00
8:55 PM,40.3,37.4,89,30.35,10.0,Calm,Calm,-,N/A,,Clear,0,2012-11-19 02:55:00
9:15 PM,41.0,37.0,86,30.35,10.0,Calm,Calm,-,N/A,,Clear,0,2012-11-19 03:15:00
9:35 PM,40.3,36.9,88,30.35,10.0,Calm,Calm,-,N/A,,Clear,0,2012-11-19 03:35:00
9:55 PM,40.1,36.7,88,30.35,10.0,Calm,Calm,-,N/A,,Clear,0,2012-11-19 03:55:00
10:15 PM,39.7,36.7,89,30.35,10.0,Calm,Calm,-,N/A,,Clear,0,2012-11-19 04:15:00
10:35 PM,39.2,36.9,91,30.34,7.0,Calm,Calm,-,N/A,,Clear,0,2012-11-19 04:35:00
10:55 PM,38.8,36.9,93,30.34,10.0,Calm,Calm,-,N/A,,Clear,0,2012-11-19 04:55:00
11:15 PM,38.8,36.9,93,30.35,10.0,Calm,Calm,-,N/A,,Clear,0,2012-11-19 05:15:00
11:35 PM,38.3,36.3,93,30.34,10.0,Calm,Calm,-,N/A,,Clear,0,2012-11-19 05:35:00
11:55 PM,38.7,36.7,93,30.34,10.0,Calm,Calm,-,N/A,,Clear,0,2012-11-19 05:55:00